sensor_id;sensor_type;location;lat;lon;timestamp;pressure;altitude;pressure_sealevel;temperature;humidity
16100;BME280;8154;50.830;12.082;2024-01-06T00:01:14;98181.28;;;23.21;34.67
16100;BME280;8154;50.830;12.082;2024-01-06T00:03:43;98177.44;;;23.17;34.71
16100;BME280;8154;50.830;12.082;2024-01-06T00:06:12;98179.53;;;22.97;35.23
16100;BME280;8154;50.830;12.082;2024-01-06T00:08:38;98179.22;;;22.87;35.45
16100;BME280;8154;50.830;12.082;2024-01-06T00:11:06;98183.59;;;22.99;35.06
16100;BME280;8154;50.830;12.082;2024-01-06T00:13:33;98177.13;;;23.07;35.15
16100;BME280;8154;50.830;12.082;2024-01-06T00:16:00;98178.94;;;23.13;34.93
16100;BME280;8154;50.830;12.082;2024-01-06T00:18:27;98177.66;;;23.15;34.83
16100;BME280;8154;50.830;12.082;2024-01-06T00:20:53;98169.22;;;23.18;34.94
16100;BME280;8154;50.830;12.082;2024-01-06T00:23:19;98171.44;;;23.21;34.66
16100;BME280;8154;50.830;12.082;2024-01-06T00:26:04;98176.53;;;23.23;34.79
16100;BME280;8154;50.830;12.082;2024-01-06T00:28:50;98178.16;;;23.24;34.64
16100;BME280;8154;50.830;12.082;2024-01-06T00:31:36;98174.28;;;23.26;34.70
16100;BME280;8154;50.830;12.082;2024-01-06T00:34:16;98174.53;;;23.18;34.77
16100;BME280;8154;50.830;12.082;2024-01-06T00:36:57;98181.16;;;22.98;35.20
16100;BME280;8154;50.830;12.082;2024-01-06T00:39:24;98174.88;;;22.92;35.34
16100;BME280;8154;50.830;12.082;2024-01-06T00:41:50;98186.41;;;23.04;34.84
16100;BME280;8154;50.830;12.082;2024-01-06T00:44:18;98184.13;;;23.08;34.85
16100;BME280;8154;50.830;12.082;2024-01-06T00:47:04;98180.19;;;23.10;34.85
16100;BME280;8154;50.830;12.082;2024-01-06T00:49:50;98189.38;;;23.14;34.92
16100;BME280;8154;50.830;12.082;2024-01-06T00:52:19;98194.81;;;23.19;34.75
16100;BME280;8154;50.830;12.082;2024-01-06T00:54:46;98198.31;;;23.20;34.78
16100;BME280;8154;50.830;12.082;2024-01-06T00:57:34;98186.59;;;23.21;34.66
16100;BME280;8154;50.830;12.082;2024-01-06T01:00:01;98187.66;;;23.20;34.50
16100;BME280;8154;50.830;12.082;2024-01-06T01:02:29;98187.88;;;23.18;34.57
16100;BME280;8154;50.830;12.082;2024-01-06T01:05:14;98192.91;;;23.08;34.95
16100;BME280;8154;50.830;12.082;2024-01-06T01:07:43;98188.97;;;22.93;34.97
16100;BME280;8154;50.830;12.082;2024-01-06T01:10:10;98190.63;;;22.94;35.05
16100;BME280;8154;50.830;12.082;2024-01-06T01:12:55;98191.97;;;23.03;34.79
16100;BME280;8154;50.830;12.082;2024-01-06T01:15:25;98206.00;;;23.10;34.95
16100;BME280;8154;50.830;12.082;2024-01-06T01:17:57;98208.81;;;23.15;34.73
16100;BME280;8154;50.830;12.082;2024-01-06T01:20:24;98211.25;;;23.16;34.69
16100;BME280;8154;50.830;12.082;2024-01-06T01:22:50;98211.88;;;23.18;34.69
16100;BME280;8154;50.830;12.082;2024-01-06T01:25:16;98215.13;;;23.02;35.04
16100;BME280;8154;50.830;12.082;2024-01-06T01:27:51;98214.53;;;23.00;34.96
16100;BME280;8154;50.830;12.082;2024-01-06T01:30:18;98193.50;;;22.92;34.69
16100;BME280;8154;50.830;12.082;2024-01-06T01:33:04;98218.09;;;23.12;34.65
16100;BME280;8154;50.830;12.082;2024-01-06T01:35:50;98215.81;;;23.16;34.64
16100;BME280;8154;50.830;12.082;2024-01-06T01:38:36;98223.63;;;23.11;34.60
16100;BME280;8154;50.830;12.082;2024-01-06T01:41:17;98221.81;;;23.11;34.89
16100;BME280;8154;50.830;12.082;2024-01-06T01:43:45;98226.91;;;23.13;34.67
16100;BME280;8154;50.830;12.082;2024-01-06T01:46:15;98217.88;;;23.14;34.55
16100;BME280;8154;50.830;12.082;2024-01-06T01:49:02;98233.03;;;23.13;34.81
16100;BME280;8154;50.830;12.082;2024-01-06T01:51:49;98230.00;;;22.92;34.95
16100;BME280;8154;50.830;12.082;2024-01-06T01:54:30;98235.91;;;22.94;34.83
16100;BME280;8154;50.830;12.082;2024-01-06T01:57:02;98231.03;;;23.09;34.81
16100;BME280;8154;50.830;12.082;2024-01-06T01:59:31;98230.59;;;23.12;34.57
16100;BME280;8154;50.830;12.082;2024-01-06T02:02:12;98230.16;;;23.15;34.60
16100;BME280;8154;50.830;12.082;2024-01-06T02:04:56;98233.19;;;23.18;34.50
16100;BME280;8154;50.830;12.082;2024-01-06T02:07:22;98237.56;;;23.13;34.78
16100;BME280;8154;50.830;12.082;2024-01-06T02:09:54;98240.13;;;23.01;34.92
16100;BME280;8154;50.830;12.082;2024-01-06T02:12:20;98240.25;;;22.88;35.22
16100;BME280;8154;50.830;12.082;2024-01-06T02:14:47;98242.72;;;22.90;35.12
16100;BME280;8154;50.830;12.082;2024-01-06T02:17:19;98245.25;;;23.03;34.76
16100;BME280;8154;50.830;12.082;2024-01-06T02:20:07;98243.31;;;23.10;34.76
16100;BME280;8154;50.830;12.082;2024-01-06T02:22:53;98242.66;;;23.14;34.55
16100;BME280;8154;50.830;12.082;2024-01-06T02:25:37;98238.97;;;22.97;34.92
16100;BME280;8154;50.830;12.082;2024-01-06T02:28:07;98209.13;;;22.70;34.93
16100;BME280;8154;50.830;12.082;2024-01-06T02:30:32;98243.63;;;23.02;34.92
16100;BME280;8154;50.830;12.082;2024-01-06T02:33:06;98246.41;;;23.07;34.55
16100;BME280;8154;50.830;12.082;2024-01-06T02:35:52;98249.03;;;23.13;34.54
16100;BME280;8154;50.830;12.082;2024-01-06T02:38:18;98253.97;;;23.10;34.64
16100;BME280;8154;50.830;12.082;2024-01-06T02:40:45;98260.34;;;23.09;34.89
16100;BME280;8154;50.830;12.082;2024-01-06T02:43:12;98252.97;;;23.11;34.65
16100;BME280;8154;50.830;12.082;2024-01-06T02:45:41;98257.22;;;22.94;35.09
16100;BME280;8154;50.830;12.082;2024-01-06T02:48:09;98260.19;;;22.86;35.35
16100;BME280;8154;50.830;12.082;2024-01-06T02:50:35;98249.41;;;22.99;34.92
16100;BME280;8154;50.830;12.082;2024-01-06T02:53:01;98256.06;;;23.08;34.78
16100;BME280;8154;50.830;12.082;2024-01-06T02:55:28;98253.97;;;23.10;34.84
16100;BME280;8154;50.830;12.082;2024-01-06T02:57:56;98259.69;;;23.13;34.57
16100;BME280;8154;50.830;12.082;2024-01-06T03:00:26;98249.09;;;23.07;34.53
16100;BME280;8154;50.830;12.082;2024-01-06T03:03:12;98258.00;;;23.19;34.56
16100;BME280;8154;50.830;12.082;2024-01-06T03:05:51;98261.22;;;23.03;34.63
16100;BME280;8154;50.830;12.082;2024-01-06T03:08:19;98260.78;;;22.88;34.95
16100;BME280;8154;50.830;12.082;2024-01-06T03:10:49;98257.84;;;22.96;34.90
16100;BME280;8154;50.830;12.082;2024-01-06T03:13:17;98263.06;;;23.02;34.68
16100;BME280;8154;50.830;12.082;2024-01-06T03:16:04;98268.34;;;23.09;34.86
16100;BME280;8154;50.830;12.082;2024-01-06T03:18:51;98262.34;;;23.13;34.69
16100;BME280;8154;50.830;12.082;2024-01-06T03:21:33;98271.38;;;23.12;34.48
16100;BME280;8154;50.830;12.082;2024-01-06T03:24:07;98270.19;;;23.08;34.83
16100;BME280;8154;50.830;12.082;2024-01-06T03:26:54;98274.03;;;22.94;34.83
16100;BME280;8154;50.830;12.082;2024-01-06T03:29:20;98265.44;;;22.92;35.03
16100;BME280;8154;50.830;12.082;2024-01-06T03:31:48;98276.78;;;23.06;34.80
16100;BME280;8154;50.830;12.082;2024-01-06T03:34:17;98268.13;;;23.10;34.72
16100;BME280;8154;50.830;12.082;2024-01-06T03:36:46;98268.56;;;23.07;34.56
16100;BME280;8154;50.830;12.082;2024-01-06T03:39:12;98273.28;;;23.05;34.61
16100;BME280;8154;50.830;12.082;2024-01-06T03:41:40;98278.63;;;23.05;34.88
16100;BME280;8154;50.830;12.082;2024-01-06T03:44:07;98270.41;;;23.07;34.79
16100;BME280;8154;50.830;12.082;2024-01-06T03:46:35;98270.78;;;23.10;34.74
16100;BME280;8154;50.830;12.082;2024-01-06T03:49:09;98281.66;;;23.09;34.49
16100;BME280;8154;50.830;12.082;2024-01-06T03:51:35;98289.66;;;22.91;35.04
16100;BME280;8154;50.830;12.082;2024-01-06T03:54:01;98286.22;;;22.84;35.10
16100;BME280;8154;50.830;12.082;2024-01-06T03:56:27;98283.00;;;23.00;34.98
16100;BME280;8154;50.830;12.082;2024-01-06T03:58:54;98284.34;;;23.09;34.70
16100;BME280;8154;50.830;12.082;2024-01-06T04:01:23;98285.94;;;23.10;34.68
16100;BME280;8154;50.830;12.082;2024-01-06T04:03:50;98285.94;;;23.10;34.47
16100;BME280;8154;50.830;12.082;2024-01-06T04:06:17;98286.63;;;23.05;34.77
16100;BME280;8154;50.830;12.082;2024-01-06T04:08:43;98289.28;;;23.05;34.56
16100;BME280;8154;50.830;12.082;2024-01-06T04:11:10;98292.53;;;23.07;34.79
16100;BME280;8154;50.830;12.082;2024-01-06T04:13:36;98290.50;;;23.09;34.69
16100;BME280;8154;50.830;12.082;2024-01-06T04:16:08;98282.03;;;22.94;34.97
16100;BME280;8154;50.830;12.082;2024-01-06T04:19:00;98283.56;;;22.84;35.00
16100;BME280;8154;50.830;12.082;2024-01-06T04:21:27;98277.88;;;22.98;34.77
16100;BME280;8154;50.830;12.082;2024-01-06T04:23:56;98281.06;;;23.07;34.75
16100;BME280;8154;50.830;12.082;2024-01-06T04:26:30;98277.38;;;23.08;34.66
16100;BME280;8154;50.830;12.082;2024-01-06T04:29:16;98265.97;;;23.01;34.50
16100;BME280;8154;50.830;12.082;2024-01-06T04:31:43;98279.16;;;23.14;34.34
16100;BME280;8154;50.830;12.082;2024-01-06T04:34:21;98283.50;;;23.08;34.57
16100;BME280;8154;50.830;12.082;2024-01-06T04:36:48;98286.59;;;22.87;34.89
16100;BME280;8154;50.830;12.082;2024-01-06T04:39:31;98291.41;;;22.79;35.04
16100;BME280;8154;50.830;12.082;2024-01-06T04:42:08;98293.09;;;22.91;34.79
16100;BME280;8154;50.830;12.082;2024-01-06T04:44:50;98291.00;;;23.00;34.57
16100;BME280;8154;50.830;12.082;2024-01-06T04:47:25;98276.72;;;22.94;34.74
16100;BME280;8154;50.830;12.082;2024-01-06T04:50:10;98285.44;;;23.01;34.64
16100;BME280;8154;50.830;12.082;2024-01-06T04:52:38;98295.44;;;23.06;34.65
16100;BME280;8154;50.830;12.082;2024-01-06T04:55:05;98303.00;;;23.09;34.51
16100;BME280;8154;50.830;12.082;2024-01-06T04:57:34;98302.75;;;23.10;34.44
16100;BME280;8154;50.830;12.082;2024-01-06T05:00:03;98297.81;;;22.96;34.44
16100;BME280;8154;50.830;12.082;2024-01-06T05:02:48;98301.44;;;23.01;34.59
16100;BME280;8154;50.830;12.082;2024-01-06T05:05:28;98299.47;;;22.90;34.85
16100;BME280;8154;50.830;12.082;2024-01-06T05:08:04;98302.53;;;22.94;34.86
16100;BME280;8154;50.830;12.082;2024-01-06T05:10:33;98302.09;;;22.97;34.66
16100;BME280;8154;50.830;12.082;2024-01-06T05:12:59;98301.66;;;23.00;34.57
16100;BME280;8154;50.830;12.082;2024-01-06T05:15:26;98303.44;;;23.06;34.73
16100;BME280;8154;50.830;12.082;2024-01-06T05:17:52;98304.25;;;23.06;34.67
16100;BME280;8154;50.830;12.082;2024-01-06T05:20:18;98308.53;;;23.07;34.66
16100;BME280;8154;50.830;12.082;2024-01-06T05:22:44;98309.38;;;23.08;34.43
16100;BME280;8154;50.830;12.082;2024-01-06T05:25:13;98312.31;;;23.00;34.62
16100;BME280;8154;50.830;12.082;2024-01-06T05:27:40;98309.31;;;22.90;34.93
16100;BME280;8154;50.830;12.082;2024-01-06T05:30:06;98317.91;;;22.92;34.78
16100;BME280;8154;50.830;12.082;2024-01-06T05:32:35;98322.53;;;23.03;34.53
16100;BME280;8154;50.830;12.082;2024-01-06T05:35:04;98332.34;;;23.02;34.61
16100;BME280;8154;50.830;12.082;2024-01-06T05:37:49;98333.63;;;23.00;34.53
16100;BME280;8154;50.830;12.082;2024-01-06T05:40:35;98346.50;;;23.03;34.70
16100;BME280;8154;50.830;12.082;2024-01-06T05:43:01;98352.06;;;23.01;34.79
16100;BME280;8154;50.830;12.082;2024-01-06T05:45:32;98347.56;;;23.02;34.61
16100;BME280;8154;50.830;12.082;2024-01-06T05:48:01;98343.63;;;23.04;34.38
16100;BME280;8154;50.830;12.082;2024-01-06T05:50:29;98350.03;;;22.97;34.64
16100;BME280;8154;50.830;12.082;2024-01-06T05:52:55;98352.00;;;22.83;34.96
16100;BME280;8154;50.830;12.082;2024-01-06T05:55:35;98349.50;;;22.88;34.83
16100;BME280;8154;50.830;12.082;2024-01-06T05:58:01;98357.38;;;23.01;34.42
16100;BME280;8154;50.830;12.082;2024-01-06T06:00:47;98354.06;;;23.06;34.56
16100;BME280;8154;50.830;12.082;2024-01-06T06:03:17;98363.53;;;23.02;34.61
16100;BME280;8154;50.830;12.082;2024-01-06T06:05:50;98357.38;;;23.01;34.52
16100;BME280;8154;50.830;12.082;2024-01-06T06:08:36;98363.09;;;23.05;34.47
16100;BME280;8154;50.830;12.082;2024-01-06T06:11:03;98358.31;;;22.89;34.79
16100;BME280;8154;50.830;12.082;2024-01-06T06:13:45;98374.19;;;22.77;35.16
16100;BME280;8154;50.830;12.082;2024-01-06T06:16:14;98374.28;;;22.89;34.86
16100;BME280;8154;50.830;12.082;2024-01-06T06:18:44;98381.19;;;22.96;34.88
16100;BME280;8154;50.830;12.082;2024-01-06T06:21:29;98372.09;;;23.04;34.61
16100;BME280;8154;50.830;12.082;2024-01-06T06:23:56;98371.66;;;23.07;34.67
16100;BME280;8154;50.830;12.082;2024-01-06T06:26:22;98386.66;;;23.08;34.56
16100;BME280;8154;50.830;12.082;2024-01-06T06:36:11;98406.25;;;22.89;35.06
16100;BME280;8154;50.830;12.082;2024-01-06T06:38:37;98411.75;;;22.94;34.90
16100;BME280;8154;50.830;12.082;2024-01-06T06:41:03;98410.91;;;23.00;34.74
16100;BME280;8154;50.830;12.082;2024-01-06T06:43:29;98422.16;;;23.02;34.84
16100;BME280;8154;50.830;12.082;2024-01-06T06:45:56;98423.34;;;23.06;34.72
16100;BME280;8154;50.830;12.082;2024-01-06T06:48:22;98418.47;;;23.03;34.44
16100;BME280;8154;50.830;12.082;2024-01-06T06:50:49;98420.63;;;22.88;34.75
16100;BME280;8154;50.830;12.082;2024-01-06T06:53:29;98427.41;;;22.84;35.10
16100;BME280;8154;50.830;12.082;2024-01-06T06:55:55;98435.75;;;22.94;34.89
16100;BME280;8154;50.830;12.082;2024-01-06T06:58:21;98445.09;;;23.03;34.49
16100;BME280;8154;50.830;12.082;2024-01-06T07:00:47;98432.00;;;23.01;34.48
16100;BME280;8154;50.830;12.082;2024-01-06T07:03:29;98448.34;;;23.11;34.25
16100;BME280;8154;50.830;12.082;2024-01-06T07:06:13;98446.22;;;22.89;34.84
16100;BME280;8154;50.830;12.082;2024-01-06T07:08:40;98457.34;;;22.79;35.20
16100;BME280;8154;50.830;12.082;2024-01-06T07:11:08;98458.50;;;22.90;34.85
16100;BME280;8154;50.830;12.082;2024-01-06T07:13:38;98462.78;;;22.97;34.68
16100;BME280;8154;50.830;12.082;2024-01-06T07:16:24;98467.03;;;23.05;34.75
16100;BME280;8154;50.830;12.082;2024-01-06T07:19:08;98470.28;;;23.07;34.57
16100;BME280;8154;50.830;12.082;2024-01-06T07:21:39;98476.22;;;23.09;34.67
16100;BME280;8154;50.830;12.082;2024-01-06T07:24:06;98477.66;;;23.11;34.55
16100;BME280;8154;50.830;12.082;2024-01-06T07:26:34;98473.75;;;23.07;34.51
16100;BME280;8154;50.830;12.082;2024-01-06T07:29:12;98472.50;;;23.10;34.57
16100;BME280;8154;50.830;12.082;2024-01-06T07:31:38;98471.78;;;22.96;34.74
16100;BME280;8154;50.830;12.082;2024-01-06T07:34:05;98474.28;;;22.91;34.79
16100;BME280;8154;50.830;12.082;2024-01-06T07:36:32;98483.50;;;22.95;34.87
16100;BME280;8154;50.830;12.082;2024-01-06T07:38:59;98485.50;;;23.00;34.53
16100;BME280;8154;50.830;12.082;2024-01-06T07:41:26;98481.59;;;23.02;34.53
16100;BME280;8154;50.830;12.082;2024-01-06T07:43:52;98481.75;;;23.07;34.54
16100;BME280;8154;50.830;12.082;2024-01-06T07:46:18;98484.22;;;23.09;34.69
16100;BME280;8154;50.830;12.082;2024-01-06T07:48:47;98478.13;;;23.02;34.42
16100;BME280;8154;50.830;12.082;2024-01-06T07:51:28;98490.03;;;22.93;34.73
16100;BME280;8154;50.830;12.082;2024-01-06T07:54:05;98492.81;;;22.80;34.85
16100;BME280;8154;50.830;12.082;2024-01-06T07:56:37;98495.78;;;22.96;34.80
16100;BME280;8154;50.830;12.082;2024-01-06T07:59:04;98493.06;;;23.03;34.66
16100;BME280;8154;50.830;12.082;2024-01-06T08:01:34;98512.13;;;23.06;34.67
16100;BME280;8154;50.830;12.082;2024-01-06T08:04:00;98506.56;;;23.08;34.56
16100;BME280;8154;50.830;12.082;2024-01-06T08:06:27;98513.63;;;22.96;34.53
16100;BME280;8154;50.830;12.082;2024-01-06T08:08:59;98520.22;;;22.87;34.77
16100;BME280;8154;50.830;12.082;2024-01-06T08:11:45;98524.88;;;22.98;34.73
16100;BME280;8154;50.830;12.082;2024-01-06T08:14:28;98527.50;;;23.04;34.65
16100;BME280;8154;50.830;12.082;2024-01-06T08:17:14;98532.63;;;23.06;34.57
16100;BME280;8154;50.830;12.082;2024-01-06T08:19:41;98535.06;;;23.07;34.67
16100;BME280;8154;50.830;12.082;2024-01-06T08:22:27;98536.69;;;23.08;34.69
16100;BME280;8154;50.830;12.082;2024-01-06T08:25:12;98541.44;;;23.06;34.46
16100;BME280;8154;50.830;12.082;2024-01-06T08:27:54;98539.91;;;22.86;34.85
16100;BME280;8154;50.830;12.082;2024-01-06T08:30:38;98541.94;;;22.90;34.83
16100;BME280;8154;50.830;12.082;2024-01-06T08:33:12;98553.31;;;23.04;34.70
16100;BME280;8154;50.830;12.082;2024-01-06T08:35:41;98565.22;;;23.08;34.42
16100;BME280;8154;50.830;12.082;2024-01-06T08:38:08;98560.66;;;23.08;34.55
16100;BME280;8154;50.830;12.082;2024-01-06T08:40:35;98558.94;;;22.96;34.59
16100;BME280;8154;50.830;12.082;2024-01-06T08:43:17;98554.25;;;22.85;35.00
16100;BME280;8154;50.830;12.082;2024-01-06T08:46:02;98546.22;;;22.91;34.66
16100;BME280;8154;50.830;12.082;2024-01-06T08:48:42;98549.25;;;23.01;34.65
16100;BME280;8154;50.830;12.082;2024-01-06T08:51:18;98554.53;;;23.08;34.41
16100;BME280;8154;50.830;12.082;2024-01-06T08:53:47;98543.44;;;23.11;34.35
16100;BME280;8154;50.830;12.082;2024-01-06T08:56:34;98551.03;;;23.14;34.29
16100;BME280;8154;50.830;12.082;2024-01-06T08:59:02;98550.41;;;23.12;34.27
16100;BME280;8154;50.830;12.082;2024-01-06T09:01:44;98549.63;;;23.11;34.32
16100;BME280;8154;50.830;12.082;2024-01-06T09:04:30;98550.41;;;23.12;34.22
16100;BME280;8154;50.830;12.082;2024-01-06T09:06:58;98548.25;;;22.96;34.52
16100;BME280;8154;50.830;12.082;2024-01-06T09:09:44;98557.91;;;22.90;34.55
16100;BME280;8154;50.830;12.082;2024-01-06T09:12:29;98551.28;;;22.99;34.80
16100;BME280;8154;50.830;12.082;2024-01-06T09:14:58;98562.34;;;23.03;34.42
16100;BME280;8154;50.830;12.082;2024-01-06T09:17:26;98557.00;;;23.09;34.63
16100;BME280;8154;50.830;12.082;2024-01-06T09:20:04;98559.88;;;23.08;34.59
16100;BME280;8154;50.830;12.082;2024-01-06T09:22:30;98566.81;;;23.09;34.62
16100;BME280;8154;50.830;12.082;2024-01-06T09:25:00;98577.06;;;23.12;34.36
16100;BME280;8154;50.830;12.082;2024-01-06T09:27:29;98576.25;;;23.11;34.50
16100;BME280;8154;50.830;12.082;2024-01-06T09:29:56;98582.38;;;23.12;34.33
16100;BME280;8154;50.830;12.082;2024-01-06T09:32:35;98572.41;;;23.01;34.56
16100;BME280;8154;50.830;12.082;2024-01-06T09:35:05;98591.00;;;23.14;34.47
16100;BME280;8154;50.830;12.082;2024-01-06T09:37:32;98595.19;;;22.97;34.71
16100;BME280;8154;50.830;12.082;2024-01-06T09:40:22;98594.38;;;22.90;34.71
16100;BME280;8154;50.830;12.082;2024-01-06T09:42:53;98595.38;;;23.02;34.72
16100;BME280;8154;50.830;12.082;2024-01-06T09:45:32;98601.28;;;23.04;34.36
16100;BME280;8154;50.830;12.082;2024-01-06T09:48:09;98597.22;;;23.01;34.48
16100;BME280;8154;50.830;12.082;2024-01-06T09:50:37;98598.81;;;23.09;34.51
16100;BME280;8154;50.830;12.082;2024-01-06T09:53:14;98597.78;;;23.10;34.44
16100;BME280;8154;50.830;12.082;2024-01-06T09:56:00;98593.69;;;23.07;34.60
16100;BME280;8154;50.830;12.082;2024-01-06T09:58:40;98597.03;;;22.96;34.62
16100;BME280;8154;50.830;12.082;2024-01-06T10:01:19;98593.56;;;22.96;34.71
16100;BME280;8154;50.830;12.082;2024-01-06T10:04:00;98604.56;;;23.06;34.59
16100;BME280;8154;50.830;12.082;2024-01-06T10:06:44;98598.38;;;23.12;34.51
16100;BME280;8154;50.830;12.082;2024-01-06T10:09:12;98596.31;;;23.14;34.34
16100;BME280;8154;50.830;12.082;2024-01-06T10:11:40;98597.16;;;23.14;34.20
16100;BME280;8154;50.830;12.082;2024-01-06T10:14:26;98602.50;;;23.14;34.49
16100;BME280;8154;50.830;12.082;2024-01-06T10:21:06;98597.66;;;22.92;34.83
16100;BME280;8154;50.830;12.082;2024-01-06T10:23:54;98603.75;;;23.05;34.66
16100;BME280;8154;50.830;12.082;2024-01-06T10:26:20;98602.72;;;23.06;34.78
16100;BME280;8154;50.830;12.082;2024-01-06T10:28:48;98598.81;;;23.09;34.63
16100;BME280;8154;50.830;12.082;2024-01-06T10:31:17;98595.09;;;23.10;34.46
16100;BME280;8154;50.830;12.082;2024-01-06T10:33:45;98595.94;;;23.10;34.51
16100;BME280;8154;50.830;12.082;2024-01-06T10:36:28;98597.38;;;23.13;34.55
16100;BME280;8154;50.830;12.082;2024-01-06T10:38:55;98602.69;;;23.13;34.50
16100;BME280;8154;50.830;12.082;2024-01-06T10:41:22;98599.00;;;23.14;34.55
16100;BME280;8154;50.830;12.082;2024-01-06T10:44:10;98599.81;;;23.14;34.40
16100;BME280;8154;50.830;12.082;2024-01-06T10:46:57;98592.50;;;23.03;34.68
16100;BME280;8154;50.830;12.082;2024-01-06T10:49:44;98588.06;;;22.91;34.65
16100;BME280;8154;50.830;12.082;2024-01-06T10:52:14;98593.94;;;22.99;34.58
16100;BME280;8154;50.830;12.082;2024-01-06T10:54:58;98595.97;;;23.04;34.69
16100;BME280;8154;50.830;12.082;2024-01-06T10:57:45;98594.72;;;23.06;34.70
16100;BME280;8154;50.830;12.082;2024-01-06T11:00:13;98599.63;;;23.09;34.52
16100;BME280;8154;50.830;12.082;2024-01-06T11:02:41;98589.84;;;23.03;34.44
16100;BME280;8154;50.830;12.082;2024-01-06T11:05:09;98591.91;;;22.95;34.78
16100;BME280;8154;50.830;12.082;2024-01-06T11:07:38;98607.69;;;22.96;34.68
16100;BME280;8154;50.830;12.082;2024-01-06T11:10:15;98602.16;;;22.98;34.73
16100;BME280;8154;50.830;12.082;2024-01-06T11:12:43;98607.22;;;23.06;34.55
16100;BME280;8154;50.830;12.082;2024-01-06T11:15:09;98608.44;;;23.10;34.50
16100;BME280;8154;50.830;12.082;2024-01-06T11:17:55;98600.84;;;23.07;34.38
16100;BME280;8154;50.830;12.082;2024-01-06T11:20:34;98608.25;;;23.11;34.42
16100;BME280;8154;50.830;12.082;2024-01-06T11:23:19;98602.53;;;23.08;34.35
16100;BME280;8154;50.830;12.082;2024-01-06T11:25:52;98594.78;;;22.93;34.82
16100;BME280;8154;50.830;12.082;2024-01-06T11:28:18;98593.34;;;22.97;34.90
16100;BME280;8154;50.830;12.082;2024-01-06T11:30:45;98592.94;;;22.94;34.90
16100;BME280;8154;50.830;12.082;2024-01-06T11:33:30;98595.75;;;23.05;34.56
16100;BME280;8154;50.830;12.082;2024-01-06T11:36:16;98597.19;;;23.08;34.61
16100;BME280;8154;50.830;12.082;2024-01-06T11:38:52;98587.31;;;23.08;34.50
16100;BME280;8154;50.830;12.082;2024-01-06T11:41:48;98589.78;;;23.10;34.57
16100;BME280;8154;50.830;12.082;2024-01-06T11:44:44;98592.25;;;23.11;34.30
16100;BME280;8154;50.830;12.082;2024-01-06T11:47:23;98590.72;;;22.91;34.79
16100;BME280;8154;50.830;12.082;2024-01-06T11:49:54;98593.97;;;22.93;34.88
16100;BME280;8154;50.830;12.082;2024-01-06T11:52:22;98588.03;;;22.97;34.58
16100;BME280;8154;50.830;12.082;2024-01-06T11:54:49;98595.16;;;23.03;34.50
16100;BME280;8154;50.830;12.082;2024-01-06T11:57:15;98593.13;;;22.99;34.73
16100;BME280;8154;50.830;12.082;2024-01-06T11:59:41;98592.50;;;23.03;34.56
16100;BME280;8154;50.830;12.082;2024-01-06T12:02:11;98602.53;;;23.08;34.62
16100;BME280;8154;50.830;12.082;2024-01-06T12:04:39;98581.84;;;23.03;34.41
16100;BME280;8154;50.830;12.082;2024-01-06T12:07:27;98590.06;;;22.95;34.86
16100;BME280;8154;50.830;12.082;2024-01-06T12:10:03;98589.22;;;23.01;34.76
16100;BME280;8154;50.830;12.082;2024-01-06T12:12:30;98588.56;;;23.06;34.51
16100;BME280;8154;50.830;12.082;2024-01-06T12:15:05;98596.34;;;23.07;34.47
16100;BME280;8154;50.830;12.082;2024-01-06T12:17:39;98596.75;;;23.11;34.67
16100;BME280;8154;50.830;12.082;2024-01-06T12:20:08;98598.59;;;23.10;34.61
16100;BME280;8154;50.830;12.082;2024-01-06T12:22:44;98593.09;;;23.05;34.41
16100;BME280;8154;50.830;12.082;2024-01-06T12:25:28;98596.81;;;22.98;34.60
16100;BME280;8154;50.830;12.082;2024-01-06T12:28:10;98607.66;;;23.03;34.77
16100;BME280;8154;50.830;12.082;2024-01-06T12:30:44;98604.22;;;22.96;34.82
16100;BME280;8154;50.830;12.082;2024-01-06T12:33:27;98609.06;;;23.05;34.42
16100;BME280;8154;50.830;12.082;2024-01-06T12:35:54;98606.41;;;23.05;34.42
16100;BME280;8154;50.830;12.082;2024-01-06T12:38:42;98609.69;;;23.07;34.73
16100;BME280;8154;50.830;12.082;2024-01-06T12:41:20;98611.31;;;23.08;34.43
16100;BME280;8154;50.830;12.082;2024-01-06T12:44:04;98614.59;;;23.10;34.38
16100;BME280;8154;50.830;12.082;2024-01-06T12:46:46;98612.38;;;23.01;34.76
16100;BME280;8154;50.830;12.082;2024-01-06T12:49:13;98606.28;;;22.87;34.68
16100;BME280;8154;50.830;12.082;2024-01-06T12:51:40;98615.88;;;23.01;34.50
16100;BME280;8154;50.830;12.082;2024-01-06T12:54:06;98614.81;;;23.02;34.57
16100;BME280;8154;50.830;12.082;2024-01-06T12:56:33;98606.63;;;23.04;34.71
16100;BME280;8154;50.830;12.082;2024-01-06T12:59:00;98606.19;;;23.07;34.45
16100;BME280;8154;50.830;12.082;2024-01-06T13:01:27;98620.13;;;23.09;34.41
16100;BME280;8154;50.830;12.082;2024-01-06T13:03:54;98616.06;;;23.00;34.59
16100;BME280;8154;50.830;12.082;2024-01-06T13:06:39;98622.59;;;23.04;34.55
16100;BME280;8154;50.830;12.082;2024-01-06T13:09:25;98620.56;;;23.06;34.58
16100;BME280;8154;50.830;12.082;2024-01-06T13:12:02;98621.00;;;22.96;34.84
16100;BME280;8154;50.830;12.082;2024-01-06T13:14:48;98614.47;;;22.92;34.60
16100;BME280;8154;50.830;12.082;2024-01-06T13:17:31;98624.28;;;22.98;34.76
16100;BME280;8154;50.830;12.082;2024-01-06T13:19:59;98625.28;;;23.04;34.61
16100;BME280;8154;50.830;12.082;2024-01-06T13:22:30;98621.81;;;23.03;34.59
16100;BME280;8154;50.830;12.082;2024-01-06T13:24:58;98627.50;;;23.07;34.54
16100;BME280;8154;50.830;12.082;2024-01-06T13:27:25;98620.97;;;23.03;34.46
16100;BME280;8154;50.830;12.082;2024-01-06T13:29:54;98630.78;;;23.09;34.62
16100;BME280;8154;50.830;12.082;2024-01-06T13:32:20;98634.19;;;22.85;33.37
16100;BME280;8154;50.830;12.082;2024-01-06T13:34:48;98637.13;;;22.63;31.09
16100;BME280;8154;50.830;12.082;2024-01-06T13:37:20;98637.56;;;22.41;30.18
16100;BME280;8154;50.830;12.082;2024-01-06T13:39:48;98637.81;;;22.20;29.99
16100;BME280;8154;50.830;12.082;2024-01-06T13:42:15;98651.53;;;22.04;29.89
16100;BME280;8154;50.830;12.082;2024-01-06T13:44:42;98642.53;;;21.85;29.96